createdAt,value
2023-04-02T00:04:33.932Z,22.8
2023-04-02T00:09:55.731Z,22.8
2023-04-02T00:15:46.336Z,22.8
2023-04-02T00:21:38.838Z,22.8
2023-04-02T00:27:31.746Z,22.8
2023-04-02T00:33:23.815Z,22.8
2023-04-02T00:39:15.715Z,22.8
2023-04-02T00:45:07.043Z,22.8
2023-04-02T00:50:59.056Z,22.8
2023-04-02T00:56:50.691Z,22.8
2023-04-02T01:02:27.728Z,22.8
2023-04-02T01:08:21.438Z,22.8
2023-04-02T01:14:13.436Z,22.8
2023-04-02T01:20:05.973Z,22.8
2023-04-02T01:25:58.266Z,22.7
2023-04-02T01:31:49.744Z,22.8
2023-04-02T01:37:41.188Z,22.7
2023-04-02T01:43:33.052Z,22.7
2023-04-02T01:49:24.003Z,22.7
2023-04-02T01:55:15.493Z,22.7
2023-04-02T02:00:51.878Z,22.7
2023-04-02T02:06:44.834Z,22.7
2023-04-02T02:12:36.074Z,22.6
2023-04-02T02:18:28.664Z,22.6
2023-04-02T02:24:20.105Z,22.7
2023-04-02T02:30:11.572Z,22.6
2023-04-02T02:36:03.452Z,22.6
2023-04-02T02:41:56.043Z,22.6
2023-04-02T02:47:48.098Z,22.6
2023-04-02T02:53:42.275Z,22.6
2023-04-02T02:59:33.738Z,22.6
2023-04-02T03:05:26.662Z,22.6
2023-04-02T03:11:18.145Z,22.6
2023-04-02T03:17:09.216Z,22.6
2023-04-02T03:22:45.112Z,22.6
2023-04-02T03:28:22.929Z,22.6
2023-04-02T03:34:15.224Z,22.6
2023-04-02T03:39:51.876Z,22.6
2023-04-02T03:45:42.833Z,22.6
2023-04-02T03:51:34.970Z,22.5
2023-04-02T04:03:14.779Z,22.5
2023-04-02T04:09:06.560Z,22.5
2023-04-02T04:14:58.697Z,22.5
2023-04-02T04:20:50.284Z,22.5
2023-04-02T04:26:41.894Z,22.4
2023-04-02T04:32:34.520Z,22.5
2023-04-02T04:38:25.988Z,22.5
2023-04-02T04:44:17.984Z,22.6
2023-04-02T04:50:09.872Z,22.8
2023-04-02T04:56:12.451Z,23.1
2023-04-02T05:02:12.568Z,23.6
2023-04-02T05:08:04.210Z,24.1
2023-04-02T05:13:54.904Z,24.6
2023-04-02T05:19:46.962Z,25.2
2023-04-02T05:25:25.842Z,25.8
2023-04-02T05:31:16.419Z,26.4
2023-04-02T05:37:08.047Z,27.1
2023-04-02T05:42:59.268Z,27.8
2023-04-02T05:48:51.286Z,28.4
2023-04-02T05:54:43.033Z,29.1
2023-04-02T06:01:07.195Z,29.9
2023-04-02T06:06:59.189Z,30.7
2023-04-02T06:12:52.352Z,31.4
2023-04-02T06:18:43.362Z,32.2
2023-04-02T06:24:19.255Z,32.9
2023-04-02T06:30:10.498Z,33.6
2023-04-02T06:35:46.728Z,50.3
2023-04-02T06:41:21.714Z,43.6
2023-04-02T06:46:58.947Z,47.6
2023-04-02T06:52:35.837Z,49.4
2023-04-02T06:58:12.958Z,50.8
2023-04-02T07:03:49.532Z,52
2023-04-02T07:09:26.423Z,53.4
2023-04-02T07:14:46.923Z,54.3
2023-04-02T07:20:24.720Z,52.6
2023-04-02T07:26:03.089Z,53.4
2023-04-02T07:31:38.751Z,54.6
2023-04-02T07:37:15.504Z,55.8
2023-04-02T07:43:07.349Z,56.4
2023-04-02T07:48:47.199Z,56.5
2023-04-02T07:54:23.522Z,57.6
2023-04-02T08:00:15.858Z,58
2023-04-02T08:05:53.475Z,59.1
2023-04-02T08:11:47.584Z,59.4
2023-04-02T08:17:39.906Z,61.4
2023-04-02T08:23:28.388Z,61.9
2023-04-02T08:29:20.324Z,61.7
2023-04-02T08:35:12.274Z,61.7
2023-04-02T08:41:03.913Z,62.2
2023-04-02T08:46:48.838Z,62.5
2023-04-02T08:52:25.110Z,64.1
2023-04-02T08:57:45.893Z,58.9
2023-04-02T09:03:24.360Z,60.7
2023-04-02T09:09:18.467Z,59.1
2023-04-02T09:15:10.257Z,59.8
2023-04-02T09:21:15.907Z,57.9
2023-04-02T09:27:04.209Z,59.4
2023-04-02T09:32:55.676Z,56.2
2023-04-02T09:38:45.698Z,63.8
2023-04-02T09:44:50.377Z,62.6
2023-04-02T09:50:43.844Z,59
2023-04-02T09:56:35.237Z,56.9
2023-04-02T10:02:26.917Z,57.9
2023-04-02T10:08:06.940Z,62.9
2023-04-02T10:14:11.101Z,58.2
2023-04-02T10:20:06.111Z,61.3
2023-04-02T10:26:10.004Z,64.3
2023-04-02T10:32:02.261Z,64.9
2023-04-02T10:37:54.003Z,63.5
2023-04-02T10:43:45.294Z,61.4
2023-04-02T10:49:49.108Z,59.1
2023-04-02T10:55:26.572Z,62.6
2023-04-02T11:01:30.914Z,66.1
2023-04-02T11:07:39.976Z,66.5
2023-04-02T11:13:16.009Z,66.9
2023-04-02T11:19:11.843Z,66.1
2023-04-02T11:25:17.838Z,64.1
2023-04-02T11:30:54.739Z,65.9
2023-04-02T11:37:11.034Z,64.9
2023-04-02T11:42:57.708Z,62.5
2023-04-02T11:48:55.723Z,61.1
2023-04-02T11:54:57.463Z,62.6
2023-04-02T12:00:50.943Z,61.2
2023-04-02T12:06:43.745Z,63.8
2023-04-02T12:12:46.251Z,62.1
2023-04-02T12:18:22.542Z,62.6
2023-04-02T12:24:15.585Z,60.2
2023-04-02T12:30:07.000Z,61.6
2023-04-02T12:35:58.759Z,64.2
2023-04-02T12:41:49.749Z,62.1
2023-04-02T12:47:41.760Z,60.9
2023-04-02T12:53:32.792Z,63.6
2023-04-02T12:59:25.156Z,64.3
2023-04-02T13:05:17.110Z,64.8
2023-04-02T13:11:08.144Z,65.2
2023-04-02T13:16:59.277Z,65.1
2023-04-02T13:22:50.938Z,64.3
2023-04-02T13:28:41.925Z,63.4
2023-04-02T13:34:18.652Z,63
2023-04-02T13:39:55.748Z,62.7
2023-04-02T13:45:47.277Z,62.5
2023-04-02T13:51:39.128Z,62.4
2023-04-02T13:57:00.372Z,61.1
2023-04-02T14:02:51.891Z,58
2023-04-02T14:08:31.272Z,55.4
2023-04-02T14:14:22.963Z,55
2023-04-02T14:20:15.312Z,53.4
2023-04-02T14:26:08.811Z,50.6
2023-04-02T14:31:30.175Z,48.9
2023-04-02T14:37:07.174Z,48.8
2023-04-02T14:42:59.496Z,48.6
2023-04-02T14:48:51.338Z,48.3
2023-04-02T14:54:42.788Z,47.3
2023-04-02T15:00:34.664Z,46.5
2023-04-02T15:06:27.533Z,44.3
2023-04-02T15:12:31.839Z,43.4
2023-04-02T15:18:35.582Z,42
2023-04-02T15:24:26.613Z,41.3
2023-04-02T15:30:18.532Z,41.3
2023-04-02T15:36:12.035Z,41.3
2023-04-02T15:42:04.194Z,41.2
2023-04-02T15:47:56.741Z,41
2023-04-02T15:53:33.039Z,40.9
2023-04-02T15:59:27.702Z,40.8
2023-04-02T16:05:22.724Z,40.7
2023-04-02T16:11:10.875Z,40.3
2023-04-02T16:16:47.292Z,39.5
2023-04-02T16:23:09.704Z,34.6
2023-04-02T16:29:03.629Z,28.6
2023-04-02T16:35:42.975Z,31.8
2023-04-02T16:41:46.327Z,34
2023-04-02T16:47:46.203Z,35.1
2023-04-02T16:53:38.709Z,35.7
2023-04-02T16:59:23.061Z,35.9
2023-04-02T17:05:00.483Z,36
2023-04-02T17:10:52.203Z,36.1
2023-04-02T17:16:50.672Z,36.1
2023-04-02T17:22:42.070Z,36.1
2023-04-02T17:28:42.494Z,36
2023-04-02T17:34:34.917Z,35.9
2023-04-02T17:40:26.393Z,35.9
2023-04-02T17:45:47.474Z,35.8
2023-04-02T17:51:25.843Z,35.8
2023-04-02T17:57:18.111Z,35.6
2023-04-02T18:03:09.780Z,35.6
2023-04-02T18:09:05.031Z,35.4
2023-04-02T18:14:56.599Z,35.4
2023-04-02T18:20:51.014Z,35.3
2023-04-02T18:26:42.443Z,35.3
2023-04-02T18:32:19.691Z,35.2
2023-04-02T18:38:10.855Z,35.1
2023-04-02T18:44:02.245Z,35.1
2023-04-02T18:49:53.897Z,34.9
2023-04-02T18:55:44.896Z,34.9
2023-04-02T19:01:36.194Z,34.8
2023-04-02T19:07:31.434Z,34.6
2023-04-02T19:13:07.238Z,34.3
2023-04-02T19:18:58.683Z,33.1
2023-04-02T19:24:50.797Z,31.6
2023-04-02T19:30:45.137Z,30
2023-04-02T19:36:36.815Z,28.6
2023-04-02T19:42:12.149Z,27.5
2023-04-02T19:48:03.641Z,26.6
2023-04-02T19:53:40.002Z,25.9
2023-04-02T19:59:34.697Z,25.4
2023-04-02T20:05:26.363Z,24.9
2023-04-02T20:11:02.623Z,24.6
2023-04-02T20:16:54.677Z,24.3
2023-04-02T20:22:46.798Z,24
2023-04-02T20:28:22.879Z,23.8
2023-04-02T20:33:28.738Z,23.6
2023-04-02T20:39:06.169Z,23.4
2023-04-02T20:44:42.396Z,23.3
2023-04-02T20:50:19.202Z,23.1
2023-04-02T20:56:10.724Z,23
2023-04-02T21:01:46.363Z,22.9
2023-04-02T21:07:23.110Z,22.8
2023-04-02T21:13:14.495Z,22.7
2023-04-02T21:19:06.483Z,22.6
2023-04-02T21:24:59.246Z,22.5
2023-04-02T21:30:35.268Z,22.4
2023-04-02T21:36:18.802Z,22.3
2023-04-02T21:42:12.358Z,22.3
2023-04-02T21:48:04.823Z,22.3
2023-04-02T21:53:57.093Z,22.1
2023-04-02T21:59:33.857Z,22.1
2023-04-02T22:05:43.627Z,22.1
2023-04-02T22:11:34.713Z,22
2023-04-02T22:17:27.759Z,22
2023-04-02T22:23:19.572Z,21.9
2023-04-02T22:28:55.825Z,21.9
2023-04-02T22:34:32.639Z,21.9
2023-04-02T22:39:53.006Z,21.8
2023-04-02T22:45:44.335Z,21.8
2023-04-02T22:51:35.566Z,21.8
2023-04-02T22:57:27.387Z,21.8
2023-04-02T23:02:49.094Z,21.8
2023-04-02T23:08:25.812Z,21.7
2023-04-02T23:13:46.815Z,21.7
2023-04-02T23:19:07.618Z,21.6
2023-04-02T23:24:27.426Z,21.6
2023-04-02T23:30:03.666Z,21.6
2023-04-02T23:35:24.774Z,21.6
2023-04-02T23:41:16.801Z,21.6
2023-04-02T23:47:08.548Z,21.5
2023-04-02T23:53:00.147Z,21.5
2023-04-02T23:58:51.321Z,21.5
